Time;durP1;ratioP1;P1;durP2;ratioP2;P2;SDS_P1;SDS_P2;PMS_P1;PMS_P2;Temp;Humidity;BMP_temperature;BMP_pressure;BME280_temperature;BME280_humidity;BME280_pressure;Samples;Min_cycle;Max_cycle;Signal;HPM_P1;HPM_P2
2023/01/04 00:02:02;;;;;;;13.87;8.17;;;2.50;99.90;;;;;;8326699;28;20209;-88
2023/01/04 00:06:05;;;;;;;10.10;7.43;;;2.50;99.90;;;;;;8344927;28;20209;-88
2023/01/04 00:10:06;;;;;;;12.60;7.77;;;2.50;99.90;;;;;;8331284;28;20182;-87
2023/01/04 00:14:10;;;;;;;11.20;6.77;;;2.50;99.90;;;;;;8352260;28;20195;-87
2023/01/04 00:18:13;;;;;;;8.10;5.93;;;2.50;99.90;;;;;;8338737;28;20192;-88
2023/01/04 00:22:15;;;;;;;9.33;5.43;;;2.50;99.90;;;;;;8355863;28;20308;-86
2023/01/04 00:26:27;;;;;;;9.17;5.03;;;2.50;99.90;;;;;;8366846;28;20327;-86
2023/01/04 00:30:29;;;;;;;7.30;4.67;;;2.50;99.90;;;;;;8358774;28;20231;-85
2023/01/04 00:34:29;;;;;;;9.53;4.67;;;2.40;99.90;;;;;;8387707;28;20213;-86
2023/01/04 00:38:32;;;;;;;9.30;4.53;;;2.40;99.90;;;;;;8378587;28;20210;-88
2023/01/04 00:42:33;;;;;;;8.63;4.67;;;2.30;99.90;;;;;;8381348;28;20247;-88
2023/01/04 00:46:35;;;;;;;9.57;4.63;;;2.30;99.90;;;;;;8381421;28;20214;-87
2023/01/04 00:50:37;;;;;;;8.03;4.53;;;2.30;99.90;;;;;;8394313;28;20657;-87
2023/01/04 00:54:37;;;;;;;7.27;3.93;;;2.30;99.90;;;;;;8369061;28;20198;-86
2023/01/04 00:58:38;;;;;;;7.73;4.40;;;2.30;99.90;;;;;;8350870;28;20269;-85
2023/01/04 01:02:39;;;;;;;7.03;3.93;;;2.30;99.90;;;;;;8341025;28;20287;-86
2023/01/04 01:06:40;;;;;;;8.13;4.47;;;2.20;99.90;;;;;;8345599;28;20188;-87
2023/01/04 01:10:41;;;;;;;8.97;4.40;;;2.20;99.90;;;;;;8340264;28;20209;-87
2023/01/04 01:14:41;;;;;;;8.80;4.70;;;2.20;99.90;;;;;;8341887;28;20197;-85
2023/01/04 01:18:43;;;;;;;7.37;4.27;;;2.10;99.90;;;;;;8338901;28;20299;-86
2023/01/04 01:22:44;;;;;;;7.47;4.80;;;2.00;99.90;;;;;;8340017;28;20213;-86
2023/01/04 01:26:45;;;;;;;7.13;4.13;;;1.90;99.90;;;;;;8336802;28;20210;-86
2023/01/04 01:30:46;;;;;;;7.30;4.13;;;1.90;99.90;;;;;;8337713;28;20191;-86
2023/01/04 01:34:47;;;;;;;6.90;3.73;;;1.80;99.90;;;;;;8336550;28;20226;-87
2023/01/04 01:38:52;;;;;;;8.47;4.73;;;1.80;99.90;;;;;;8346086;28;20531;-85
2023/01/04 01:42:53;;;;;;;6.37;3.97;;;1.80;99.90;;;;;;8334240;28;20206;-86
2023/01/04 01:46:54;;;;;;;8.10;5.03;;;1.80;99.90;;;;;;8354369;28;20187;-86
2023/01/04 01:51:03;;;;;;;8.07;4.80;;;1.80;99.90;;;;;;8343012;28;20193;-86
2023/01/04 01:55:08;;;;;;;7.27;4.17;;;1.80;99.90;;;;;;8342583;28;20193;-86
2023/01/04 01:59:11;;;;;;;8.27;4.40;;;1.80;99.90;;;;;;8335867;28;20197;-85
2023/01/04 02:03:21;;;;;;;5.20;3.70;;;1.80;99.90;;;;;;8339116;28;20268;-86
2023/01/04 02:07:24;;;;;;;7.10;4.17;;;1.80;99.90;;;;;;8340726;28;20197;-88
2023/01/04 02:11:25;;;;;;;5.87;3.50;;;1.80;99.90;;;;;;8332771;28;20186;-88
2023/01/04 02:15:31;;;;;;;5.77;3.77;;;1.80;99.90;;;;;;8338335;28;20193;-88
2023/01/04 02:20:09;;;;;;;5.40;2.77;;;1.80;99.90;;;;;;8338012;28;20195;-86
2023/01/04 02:24:22;;;;;;;5.90;3.10;;;1.70;99.90;;;;;;8295735;28;20539;-86
2023/01/04 02:28:52;;;;;;;5.33;2.90;;;1.70;99.90;;;;;;8340600;28;20244;-87
2023/01/04 02:33:27;;;;;;;5.07;2.80;;;1.70;99.90;;;;;;8345042;28;20204;-86
2023/01/04 02:37:47;;;;;;;3.70;2.80;;;1.70;99.90;;;;;;8330865;28;20207;-87
2023/01/04 02:41:54;;;;;;;3.60;2.47;;;1.70;99.90;;;;;;8332544;28;20190;-87
2023/01/04 02:46:04;;;;;;;5.73;2.80;;;1.70;99.90;;;;;;8347693;28;20212;-86
2023/01/04 02:50:31;;;;;;;3.17;2.23;;;1.80;99.90;;;;;;8343645;28;20183;-86
2023/01/04 02:54:34;;;;;;;4.73;2.90;;;1.80;99.90;;;;;;8338666;28;20300;-85
2023/01/04 02:59:29;;;;;;;4.63;2.50;;;1.90;99.90;;;;;;8338312;28;20198;-86
2023/01/04 03:08:36;;;;;;;6.20;3.07;;;2.10;99.90;;;;;;8338842;28;20190;-85
2023/01/04 03:12:43;;;;;;;4.23;2.57;;;2.20;99.90;;;;;;8332020;28;20229;-87
2023/01/04 03:16:46;;;;;;;5.87;3.07;;;2.20;99.90;;;;;;8354081;28;20186;-85
2023/01/04 03:20:48;;;;;;;5.37;2.73;;;2.20;99.90;;;;;;8342312;28;20187;-86
2023/01/04 03:51:44;;;;;;;6.57;3.87;;;1.90;99.90;;;;;;8351747;28;20213;-87
2023/01/04 03:55:47;;;;;;;5.60;3.87;;;1.90;99.90;;;;;;8343094;28;20525;-86
2023/01/04 04:00:10;;;;;;;5.53;3.87;;;1.90;99.90;;;;;;8344884;28;20213;-87
2023/01/04 04:08:30;;;;;;;5.90;3.40;;;1.90;99.90;;;;;;8341919;28;20261;-87
2023/01/04 04:12:31;;;;;;;5.77;3.80;;;2.10;99.90;;;;;;8336690;28;20482;-87
2023/01/04 04:16:32;;;;;;;4.87;3.53;;;2.30;99.90;;;;;;8340920;28;20217;-87
2023/01/04 04:20:33;;;;;;;5.17;3.43;;;2.50;99.90;;;;;;8339290;28;20308;-85
2023/01/04 04:24:33;;;;;;;4.57;3.00;;;2.50;99.90;;;;;;8336907;28;20213;-86
2023/01/04 04:28:34;;;;;;;4.87;2.60;;;2.50;99.90;;;;;;8334723;28;20192;-85
2023/01/04 04:32:35;;;;;;;3.63;2.80;;;2.30;99.90;;;;;;8338316;28;20376;-86
2023/01/04 04:36:36;;;;;;;4.20;2.50;;;2.20;99.90;;;;;;8332959;28;20218;-86
2023/01/04 04:44:59;;;;;;;4.10;2.40;;;2.10;99.90;;;;;;8329301;28;20294;-85
2023/01/04 04:49:00;;;;;;;4.90;2.30;;;2.00;99.90;;;;;;8328389;28;20182;-85
2023/01/04 04:53:01;;;;;;;4.77;2.97;;;2.00;99.90;;;;;;8333980;28;20237;-86
2023/01/04 04:57:02;;;;;;;2.87;2.20;;;2.00;99.90;;;;;;8335369;28;20190;-87
2023/01/04 05:01:03;;;;;;;4.20;2.67;;;2.00;99.90;;;;;;8336966;28;20186;-85
2023/01/04 05:05:04;;;;;;;4.20;2.90;;;2.00;99.90;;;;;;8333771;28;20216;-86
2023/01/04 05:09:05;;;;;;;5.37;2.50;;;1.90;99.90;;;;;;8337981;28;20174;-86
2023/01/04 05:13:09;;;;;;;3.07;2.40;;;1.90;99.90;;;;;;8346848;28;20182;-86
2023/01/04 05:17:10;;;;;;;4.90;3.00;;;1.90;99.90;;;;;;8340441;28;20243;-85
2023/01/04 05:21:11;;;;;;;3.33;2.07;;;1.90;99.90;;;;;;8347907;28;20277;-86
2023/01/04 05:25:12;;;;;;;5.10;2.77;;;1.90;99.90;;;;;;8346980;28;20213;-86
2023/01/04 05:30:49;;;;;;;4.10;2.47;;;1.80;99.90;;;;;;8348911;28;20175;-86
2023/01/04 05:33:33;;;;;;;4.90;2.73;;;1.80;99.90;;;;;;8342475;28;20206;-86
2023/01/04 05:37:34;;;;;;;5.80;3.07;;;1.70;99.90;;;;;;8336481;28;20205;-85
2023/01/04 05:45:55;;;;;;;5.33;3.17;;;1.60;99.90;;;;;;8337748;28;20221;-88
2023/01/04 05:49:56;;;;;;;4.47;2.70;;;1.50;99.90;;;;;;8343600;28;20190;-86
2023/01/04 05:53:57;;;;;;;3.70;2.40;;;1.40;99.90;;;;;;8342106;28;20411;-86
2023/01/04 05:57:57;;;;;;;4.50;2.90;;;1.40;99.90;;;;;;8334924;28;20547;-86
2023/01/04 06:01:58;;;;;;;4.57;2.43;;;1.40;99.90;;;;;;8339170;28;20209;-86
2023/01/04 06:05:59;;;;;;;5.07;2.80;;;1.40;99.90;;;;;;8338186;28;20267;-86
2023/01/04 06:10:00;;;;;;;4.43;2.83;;;1.40;99.90;;;;;;8342406;28;20193;-85
2023/01/04 06:14:01;;;;;;;3.97;2.90;;;1.40;99.90;;;;;;8343798;28;20218;-85
2023/01/04 06:18:02;;;;;;;4.10;3.37;;;1.40;99.90;;;;;;8342369;28;20186;-85
2023/01/04 06:22:03;;;;;;;6.43;3.30;;;1.40;99.90;;;;;;8344101;28;20244;-87
2023/01/04 06:26:04;;;;;;;6.03;3.20;;;1.40;99.90;;;;;;8377192;28;20247;-88
2023/01/04 06:30:05;;;;;;;6.17;3.67;;;1.40;99.90;;;;;;8368640;28;20303;-87
2023/01/04 06:34:06;;;;;;;6.53;3.83;;;1.50;99.90;;;;;;8377309;28;20202;-89
2023/01/04 06:38:07;;;;;;;6.90;3.87;;;1.50;99.90;;;;;;8375488;28;20216;-86
2023/01/04 06:42:43;;;;;;;5.10;3.53;;;1.50;99.90;;;;;;8365535;28;20198;-87
2023/01/04 06:46:31;;;;;;;5.53;3.20;;;1.50;99.90;;;;;;8353982;28;20221;-87
2023/01/04 06:50:32;;;;;;;7.33;3.70;;;1.50;99.90;;;;;;8354319;28;20209;-86
2023/01/04 06:54:33;;;;;;;7.07;3.67;;;1.50;99.90;;;;;;8338566;28;20186;-86
2023/01/04 06:58:34;;;;;;;7.00;3.60;;;1.50;99.90;;;;;;8343388;28;20198;-86
2023/01/04 07:02:35;;;;;;;5.17;3.50;;;1.50;99.90;;;;;;8355597;28;20190;-87
2023/01/04 07:06:36;;;;;;;4.60;3.17;;;1.50;99.90;;;;;;8337541;28;20187;-87
2023/01/04 07:10:38;;;;;;;5.20;3.40;;;1.60;99.90;;;;;;8340937;28;20183;-86
2023/01/04 07:14:39;;;;;;;5.40;3.53;;;1.60;99.90;;;;;;8336817;28;20196;-86
2023/01/04 07:18:39;;;;;;;7.70;4.23;;;1.70;99.90;;;;;;8337688;28;20185;-85
2023/01/04 07:22:40;;;;;;;4.13;3.30;;;1.80;99.90;;;;;;8349714;28;20186;-86
2023/01/04 07:26:41;;;;;;;6.80;3.90;;;2.10;99.90;;;;;;8330712;28;20475;-88
2023/01/04 07:30:42;;;;;;;3.90;3.03;;;2.30;99.90;;;;;;8336361;28;20248;-88
2023/01/04 07:34:43;;;;;;;5.40;3.40;;;2.50;99.90;;;;;;8334334;28;20214;-87
2023/01/04 07:38:43;;;;;;;6.33;3.97;;;2.70;99.90;;;;;;8342399;28;20194;-87
2023/01/04 07:42:53;;;;;;;6.07;3.80;;;2.80;99.90;;;;;;8342956;28;20214;-87
2023/01/04 07:46:54;;;;;;;5.13;3.50;;;3.00;99.90;;;;;;8332957;28;20278;-88
2023/01/04 07:50:55;;;;;;;5.60;3.97;;;3.20;99.90;;;;;;8334956;28;20222;-86
2023/01/04 07:54:56;;;;;;;5.77;3.63;;;3.50;99.90;;;;;;8346389;28;22311;-85
2023/01/04 07:58:58;;;;;;;4.50;2.97;;;3.70;99.90;;;;;;8328122;28;20197;-86
2023/01/04 08:02:59;;;;;;;6.13;4.10;;;3.90;99.90;;;;;;8338530;28;20336;-86
2023/01/04 08:06:59;;;;;;;4.03;2.97;;;4.00;99.90;;;;;;8332445;28;20183;-86
2023/01/04 08:11:06;;;;;;;4.03;3.13;;;4.10;99.90;;;;;;8335539;28;20280;-86
2023/01/04 08:15:09;;;;;;;4.67;3.03;;;4.20;99.90;;;;;;8339534;28;20277;-87
2023/01/04 08:19:19;;;;;;;4.43;2.73;;;4.40;99.90;;;;;;8329334;28;20190;-87
2023/01/04 08:23:20;;;;;;;2.83;2.57;;;4.50;99.90;;;;;;8334399;28;20233;-86
2023/01/04 08:27:21;;;;;;;3.57;2.73;;;4.70;99.90;;;;;;8333855;28;20185;-86
2023/01/04 08:31:25;;;;;;;4.10;2.70;;;4.90;99.90;;;;;;8339321;28;20524;-86
2023/01/04 08:35:26;;;;;;;4.27;2.83;;;5.10;99.90;;;;;;8326968;28;20224;-78
2023/01/04 08:39:28;;;;;;;3.03;2.20;;;5.40;99.90;;;;;;8333048;28;20186;-78
2023/01/04 08:43:29;;;;;;;4.87;2.40;;;5.70;99.90;;;;;;8344681;28;20213;-78
2023/01/04 08:47:31;;;;;;;3.87;2.73;;;5.90;1.00;;;;;;8341111;28;20277;-78
2023/01/04 08:51:32;;;;;;;4.27;2.40;;;6.10;99.90;;;;;;8347867;28;20183;-78
2023/01/04 08:55:33;;;;;;;3.83;2.23;;;6.30;99.90;;;;;;8341693;28;20198;-78
2023/01/04 08:59:34;;;;;;;3.27;2.10;;;6.40;99.90;;;;;;8342564;28;20189;-78
2023/01/04 09:03:35;;;;;;;2.83;1.83;;;6.50;58.60;;;;;;8335040;28;20226;-78
2023/01/04 09:07:36;;;;;;;3.43;2.30;;;6.60;30.70;;;;;;8332362;28;20213;-78
2023/01/04 09:11:37;;;;;;;3.60;2.30;;;6.60;1.00;;;;;;8336115;28;20182;-75
2023/01/04 09:15:38;;;;;;;5.13;2.60;;;6.70;1.00;;;;;;8336011;28;20855;-75
2023/01/04 09:19:39;;;;;;;2.67;2.20;;;6.80;1.00;;;;;;8337363;28;20190;-76
2023/01/04 09:23:41;;;;;;;2.80;2.40;;;6.90;1.00;;;;;;8338812;28;20225;-76
2023/01/04 09:27:42;;;;;;;11.23;9.17;;;7.10;1.00;;;;;;8337430;28;20250;-77
2023/01/04 09:31:43;;;;;;;4.60;3.20;;;7.40;1.00;;;;;;8335544;28;20186;-75
2023/01/04 09:35:44;;;;;;;6.07;2.87;;;7.60;99.90;;;;;;8348165;28;20307;-76
2023/01/04 09:39:46;;;;;;;5.60;4.17;;;7.90;99.90;;;;;;8346468;28;20194;-76
2023/01/04 09:43:57;;;;;;;6.27;4.47;;;8.00;99.90;;;;;;8332912;28;20214;-76
2023/01/04 09:48:05;;;;;;;4.57;3.47;;;8.10;99.90;;;;;;8338140;28;20186;-78
2023/01/04 09:52:09;;;;;;;2.67;2.27;;;8.10;99.90;;;;;;8350497;28;20182;-77
2023/01/04 09:56:25;;;;;;;2.43;1.73;;;8.20;99.90;;;;;;8339301;28;20189;-76
2023/01/04 10:00:37;;;;;;;4.63;3.13;;;8.30;99.90;;;;;;8341837;28;20186;-76
2023/01/04 10:04:49;;;;;;;9.43;4.77;;;8.40;99.90;;;;;;8351312;28;20272;-77
2023/01/04 10:08:50;;;;;;;18.00;7.87;;;8.50;99.90;;;;;;8332789;28;20281;-77
2023/01/04 10:13:13;;;;;;;7.70;4.17;;;8.50;99.90;;;;;;8335200;28;20186;-76
2023/01/04 10:17:33;;;;;;;3.87;2.20;;;8.50;99.90;;;;;;8336141;28;20347;-77
2023/01/04 10:21:41;;;;;;;2.07;1.20;;;8.50;99.90;;;;;;8333860;28;20190;-77
2023/01/04 10:25:54;;;;;;;2.23;1.30;;;8.50;99.90;;;;;;8334303;28;20272;-77
2023/01/04 10:30:04;;;;;;;4.83;2.43;;;8.60;99.90;;;;;;8342520;28;20218;-76
2023/01/04 10:34:24;;;;;;;3.80;2.40;;;8.70;99.90;;;;;;8335833;28;20217;-76
2023/01/04 10:38:35;;;;;;;2.13;1.30;;;8.80;99.90;;;;;;8334728;28;20213;-77
2023/01/04 10:42:46;;;;;;;1.90;1.33;;;8.80;99.90;;;;;;8333631;28;20207;-77
2023/01/04 10:47:10;;;;;;;1.33;1.07;;;8.80;99.90;;;;;;8338752;28;20186;-77
2023/01/04 10:51:14;;;;;;;1.90;1.50;;;8.60;99.90;;;;;;8344342;28;20193;-77
2023/01/04 10:55:29;;;;;;;2.33;1.30;;;8.40;99.90;;;;;;8331186;28;20194;-76
2023/01/04 10:59:46;;;;;;;3.57;2.43;;;8.20;99.90;;;;;;8331934;28;20190;-77
2023/01/04 11:04:09;;;;;;;2.07;1.70;;;8.00;99.90;;;;;;8334231;28;20209;-78
2023/01/04 11:08:26;;;;;;;8.83;3.97;;;8.00;1.00;;;;;;8336026;28;20181;-78
2023/01/04 11:12:27;;;;;;;12.93;5.20;;;8.20;1.00;;;;;;8334325;28;20181;-78
2023/01/04 11:16:28;;;;;;;3.40;1.77;;;8.30;1.00;;;;;;8330689;28;20220;-78
2023/01/04 11:20:30;;;;;;;3.77;1.50;;;8.30;1.00;;;;;;8333179;28;20193;-78
2023/01/04 11:24:33;;;;;;;2.27;1.63;;;8.40;99.90;;;;;;8334335;28;20591;-78
2023/01/04 11:28:40;;;;;;;1.57;1.10;;;8.60;99.90;;;;;;8334317;28;20204;-77
2023/01/04 11:32:53;;;;;;;2.33;1.37;;;8.70;99.90;;;;;;8337393;28;20213;-77
2023/01/04 11:36:54;;;;;;;1.93;1.40;;;8.80;99.90;;;;;;8349197;28;20357;-77
2023/01/04 11:41:04;;;;;;;1.50;1.10;;;9.00;99.90;;;;;;8331696;28;20187;-77
2023/01/04 11:45:06;;;;;;;1.87;1.20;;;9.10;99.90;;;;;;8334427;28;20279;-77
2023/01/04 11:49:18;;;;;;;1.67;1.30;;;9.20;99.90;;;;;;8338108;28;20204;-78
2023/01/04 11:53:35;;;;;;;2.33;1.60;;;9.40;99.90;;;;;;8337648;28;20501;-78
2023/01/04 11:57:36;;;;;;;1.23;1.03;;;9.50;99.90;;;;;;8336566;28;20213;-78
2023/01/04 12:01:42;;;;;;;2.73;1.47;;;9.50;99.90;;;;;;8341744;28;20186;-78
2023/01/04 12:05:43;;;;;;;1.80;1.40;;;9.40;99.90;;;;;;8338194;28;20312;-78
2023/01/04 12:09:44;;;;;;;4.47;1.70;;;9.30;99.90;;;;;;8325759;28;20245;-76
2023/01/04 12:13:45;;;;;;;2.43;1.90;;;9.30;99.90;;;;;;8341897;28;20190;-76
2023/01/04 12:17:54;;;;;;;4.53;2.50;;;9.20;99.90;;;;;;8338454;28;20181;-76
2023/01/04 12:22:01;;;;;;;4.50;2.30;;;9.20;99.90;;;;;;8339789;28;20241;-76
2023/01/04 12:26:02;;;;;;;4.07;2.30;;;9.20;99.90;;;;;;8340233;28;20202;-76
2023/01/04 12:30:06;;;;;;;4.50;2.50;;;9.10;99.90;;;;;;8337242;28;20185;-76
2023/01/04 12:34:24;;;;;;;2.80;2.03;;;9.10;99.90;;;;;;8342321;28;20237;-76
2023/01/04 12:38:54;;;;;;;4.73;1.97;;;9.10;99.90;;;;;;8352206;28;20197;-76
2023/01/04 12:43:13;;;;;;;3.93;2.07;;;9.00;99.90;;;;;;8351187;28;20721;-77
2023/01/04 12:51:36;;;;;;;2.50;1.83;;;8.90;1.00;;;;;;8353498;28;20348;-78
2023/01/04 12:55:43;;;;;;;5.60;2.20;;;8.60;1.00;;;;;;8345456;28;20186;-80
2023/01/04 13:00:08;;;;;;;2.70;2.17;;;8.50;1.00;;;;;;8345598;28;20185;-80
2023/01/04 13:04:42;;;;;;;3.37;1.97;;;8.30;1.00;;;;;;8344331;28;20206;-80
2023/01/04 13:08:50;;;;;;;4.17;2.57;;;8.10;1.00;;;;;;8347201;28;20194;-80
2023/01/04 13:13:15;;;;;;;4.03;2.70;;;8.10;1.00;;;;;;8340814;28;20175;-80
2023/01/04 13:17:22;;;;;;;3.37;2.40;;;8.00;1.00;;;;;;8337781;28;20182;-80
2023/01/04 13:21:45;;;;;;;4.33;2.70;;;7.90;55.40;;;;;;8337882;28;20190;-80
2023/01/04 13:25:46;;;;;;;4.20;2.40;;;7.80;97.50;;;;;;8333186;28;20220;-80
2023/01/04 13:29:48;;;;;;;3.70;2.83;;;7.80;99.90;;;;;;8339258;28;20182;-81
2023/01/04 13:33:49;;;;;;;2.83;2.27;;;7.80;99.90;;;;;;8337960;28;20210;-81
2023/01/04 13:37:50;;;;;;;3.53;2.47;;;7.70;99.90;;;;;;8342427;28;20194;-80
2023/01/04 13:41:53;;;;;;;3.77;2.93;;;7.70;99.90;;;;;;8338361;28;20217;-80
2023/01/04 13:46:06;;;;;;;4.43;2.60;;;7.60;99.90;;;;;;8330375;28;20231;-80
2023/01/04 13:50:38;;;;;;;3.90;2.47;;;7.50;99.90;;;;;;8354603;28;20194;-80
2023/01/04 13:54:39;;;;;;;3.27;2.13;;;7.60;1.00;;;;;;8342293;28;20189;-80
2023/01/04 13:58:42;;;;;;;2.80;2.27;;;7.60;1.00;;;;;;8327190;28;20601;-80
2023/01/04 14:02:43;;;;;;;5.37;2.70;;;7.60;1.00;;;;;;8336761;28;20274;-81
2023/01/04 14:06:47;;;;;;;5.03;2.80;;;7.50;1.00;;;;;;8338616;28;20206;-78
2023/01/04 14:10:49;;;;;;;3.80;2.60;;;7.60;1.00;;;;;;8358434;28;20186;-78
2023/01/04 14:14:50;;;;;;;3.40;2.40;;;7.60;99.90;;;;;;8333129;28;20190;-78
2023/01/04 14:18:50;;;;;;;2.70;2.30;;;7.60;99.90;;;;;;8339387;28;20189;-78
2023/01/04 14:22:54;;;;;;;4.40;2.63;;;7.60;99.90;;;;;;8343302;28;20555;-78
2023/01/04 14:26:55;;;;;;;3.93;2.50;;;7.60;99.90;;;;;;8342117;28;20195;-80
2023/01/04 14:30:59;;;;;;;3.00;2.70;;;7.60;99.90;;;;;;8338536;28;20561;-78
2023/01/04 14:35:10;;;;;;;3.10;2.20;;;7.60;99.90;;;;;;8354982;28;20214;-79
2023/01/04 14:39:18;;;;;;;2.83;2.47;;;7.60;99.90;;;;;;8334828;28;20179;-78
2023/01/04 14:43:35;;;;;;;5.27;2.80;;;7.60;99.90;;;;;;8341026;28;20293;-78
2023/01/04 14:47:36;;;;;;;4.33;2.83;;;7.50;99.90;;;;;;8335056;28;20194;-78
2023/01/04 14:51:45;;;;;;;4.70;3.10;;;7.50;99.90;;;;;;8340482;28;20197;-78
2023/01/04 14:55:46;;;;;;;3.37;3.03;;;7.60;99.90;;;;;;8333844;28;20206;-81
2023/01/04 14:59:47;;;;;;;5.57;3.10;;;7.50;99.90;;;;;;8338449;28;20193;-80
2023/01/04 15:03:48;;;;;;;4.43;2.80;;;7.50;1.00;;;;;;8336186;28;20194;-80
2023/01/04 15:07:49;;;;;;;5.13;3.00;;;7.60;1.00;;;;;;8339296;28;20185;-80
2023/01/04 15:11:50;;;;;;;6.27;3.80;;;7.60;1.00;;;;;;8338113;28;20193;-80
2023/01/04 15:15:51;;;;;;;5.20;3.63;;;7.70;99.90;;;;;;8336853;28;20362;-79
2023/01/04 15:19:52;;;;;;;5.53;3.20;;;7.70;99.90;;;;;;8333741;28;20279;-80
2023/01/04 15:23:52;;;;;;;5.33;3.13;;;7.70;99.90;;;;;;8342273;28;20360;-79
2023/01/04 15:27:54;;;;;;;3.70;2.93;;;7.70;1.00;;;;;;8334757;28;20264;-79
2023/01/04 15:31:54;;;;;;;3.33;2.80;;;7.80;1.00;;;;;;8362021;28;20181;-86
2023/01/04 15:36:00;;;;;;;3.83;2.80;;;7.70;44.70;;;;;;8376251;28;20259;-87
2023/01/04 15:40:01;;;;;;;3.27;2.30;;;7.70;90.00;;;;;;8372452;28;20197;-86
2023/01/04 15:44:03;;;;;;;3.37;2.27;;;7.60;90.50;;;;;;8365803;28;20260;-87
2023/01/04 15:48:06;;;;;;;4.20;2.70;;;7.60;36.60;;;;;;8357269;28;20201;-88
2023/01/04 15:52:07;;;;;;;3.13;2.63;;;7.70;1.00;;;;;;8348618;28;20182;-86
2023/01/04 15:56:11;;;;;;;3.13;2.80;;;7.70;1.00;;;;;;8341673;28;21940;-87
2023/01/04 16:00:12;;;;;;;4.70;3.10;;;7.80;1.00;;;;;;8346872;28;20209;-85
2023/01/04 16:04:13;;;;;;;4.07;3.10;;;7.80;1.00;;;;;;8343789;28;20219;-87
2023/01/04 16:08:14;;;;;;;4.77;3.10;;;7.90;1.00;;;;;;8334255;28;20186;-86
2023/01/04 16:16:34;;;;;;;6.57;3.40;;;8.00;1.00;;;;;;8339296;28;20220;-87
2023/01/04 16:20:39;;;;;;;4.73;3.37;;;8.00;1.00;;;;;;8343022;28;20187;-86
2023/01/04 16:24:39;;;;;;;4.73;3.33;;;7.90;21.30;;;;;;8337707;28;20241;-87
2023/01/04 16:28:40;;;;;;;3.33;2.87;;;7.90;99.90;;;;;;8335667;28;20212;-86
2023/01/04 16:32:43;;;;;;;5.20;3.20;;;7.90;99.90;;;;;;8338585;28;20186;-86
2023/01/04 16:36:44;;;;;;;4.93;3.20;;;7.90;99.90;;;;;;8337114;28;20226;-86
2023/01/04 16:40:58;;;;;;;4.97;3.07;;;7.90;99.90;;;;;;8336870;28;20190;-86
2023/01/04 16:44:59;;;;;;;3.73;3.10;;;7.90;99.90;;;;;;8340668;28;20202;-87
2023/01/04 16:49:04;;;;;;;4.83;3.20;;;7.80;99.90;;;;;;8329392;28;20191;-87
2023/01/04 16:53:05;;;;;;;5.23;2.77;;;7.90;1.00;;;;;;8336708;28;20217;-86
2023/01/04 16:57:06;;;;;;;3.87;2.77;;;7.90;1.00;;;;;;8334597;28;20519;-87
2023/01/04 17:01:18;;;;;;;4.33;3.00;;;7.90;99.90;;;;;;8341155;28;20187;-86
2023/01/04 17:05:18;;;;;;;3.60;2.90;;;8.00;99.90;;;;;;8340562;28;20553;-88
2023/01/04 17:09:21;;;;;;;3.87;2.87;;;8.00;99.90;;;;;;8344778;28;20191;-87
2023/01/04 17:13:21;;;;;;;5.07;2.93;;;8.10;99.90;;;;;;8343103;28;20201;-86
2023/01/04 17:17:23;;;;;;;4.17;2.70;;;8.10;1.00;;;;;;8341877;28;20256;-86
2023/01/04 17:21:29;;;;;;;4.53;2.60;;;8.10;1.00;;;;;;8342556;28;20196;-86
2023/01/04 17:25:30;;;;;;;3.53;2.50;;;8.20;99.90;;;;;;8325955;28;20222;-87
2023/01/04 17:29:32;;;;;;;3.63;2.33;;;8.10;1.00;;;;;;8343294;28;20193;-87
2023/01/04 17:33:33;;;;;;;2.30;1.90;;;8.10;1.00;;;;;;8337972;28;20213;-87
2023/01/04 17:37:34;;;;;;;2.80;2.20;;;8.20;99.90;;;;;;8344275;28;20202;-86
2023/01/04 17:41:35;;;;;;;3.10;2.23;;;8.20;99.90;;;;;;8340429;28;20190;-87
2023/01/04 17:45:36;;;;;;;4.37;2.30;;;8.20;90.10;;;;;;8339132;28;20213;-86
2023/01/04 17:49:37;;;;;;;2.70;1.83;;;8.20;92.40;;;;;;8342282;28;20240;-87
2023/01/04 17:53:39;;;;;;;2.57;2.03;;;8.20;99.90;;;;;;8347969;28;20256;-88
2023/01/04 17:57:40;;;;;;;3.00;1.93;;;8.30;1.00;;;;;;8351811;28;20209;-86
2023/01/04 18:01:41;;;;;;;5.97;2.10;;;8.20;99.90;;;;;;8345335;28;20205;-87
2023/01/04 18:05:50;;;;;;;5.37;2.63;;;8.20;99.90;;;;;;8342525;28;20330;-87
2023/01/04 18:09:52;;;;;;;3.87;2.17;;;8.10;99.90;;;;;;8348770;28;20186;-86
2023/01/04 18:13:53;;;;;;;2.90;2.10;;;8.20;1.00;;;;;;8336742;28;20198;-87
2023/01/04 18:17:54;;;;;;;2.60;1.90;;;8.30;1.00;;;;;;8349377;28;20207;-86
2023/01/04 18:21:56;;;;;;;2.87;1.80;;;8.40;51.20;;;;;;8363901;28;20194;-86
2023/01/04 18:26:00;;;;;;;4.23;2.57;;;8.40;1.00;;;;;;8377836;28;20236;-87
2023/01/04 18:30:01;;;;;;;3.20;2.03;;;8.50;99.90;;;;;;8368983;28;20292;-85
2023/01/04 18:34:02;;;;;;;1.70;1.60;;;8.40;99.90;;;;;;8373095;28;20189;-86
2023/01/04 18:38:03;;;;;;;3.07;1.80;;;8.40;99.90;;;;;;8371905;28;20194;-85
2023/01/04 18:42:04;;;;;;;4.63;2.10;;;8.50;91.90;;;;;;8365501;28;20255;-86
2023/01/04 18:46:09;;;;;;;2.27;1.67;;;8.40;99.90;;;;;;8353529;28;20275;-86
2023/01/04 18:50:10;;;;;;;3.30;1.60;;;8.40;20.10;;;;;;8350051;28;20201;-86
2023/01/04 18:54:19;;;;;;;2.00;1.60;;;8.40;39.80;;;;;;8347353;28;20186;-87
2023/01/04 18:58:20;;;;;;;1.87;1.40;;;8.30;90.20;;;;;;8338623;28;20353;-84
2023/01/04 19:02:20;;;;;;;2.53;1.73;;;8.40;6.70;;;;;;8344460;28;20288;-86
2023/01/04 19:06:22;;;;;;;2.30;1.57;;;8.40;1.00;;;;;;8347684;28;20201;-85
2023/01/04 19:10:22;;;;;;;3.23;1.50;;;8.40;1.00;;;;;;8342285;28;20182;-86
2023/01/04 19:14:29;;;;;;;2.43;1.53;;;8.40;1.00;;;;;;8343165;28;20174;-86
2023/01/04 19:18:30;;;;;;;3.50;1.77;;;8.40;1.00;;;;;;8342358;28;20179;-86
2023/01/04 19:22:31;;;;;;;3.40;1.47;;;8.50;1.00;;;;;;8339019;28;20189;-86
2023/01/04 19:26:32;;;;;;;1.90;1.33;;;8.50;99.90;;;;;;8339473;28;20233;-85
2023/01/04 19:30:36;;;;;;;1.97;1.10;;;8.60;99.90;;;;;;8340761;28;20270;-86
2023/01/04 19:34:37;;;;;;;2.83;1.03;;;8.70;99.90;;;;;;8343966;28;20302;-86
2023/01/04 19:38:39;;;;;;;1.87;1.40;;;8.80;99.90;;;;;;8341354;28;20248;-86
2023/01/04 19:42:40;;;;;;;1.40;1.10;;;8.90;21.60;;;;;;8343074;28;20186;-86
2023/01/04 19:46:41;;;;;;;1.53;1.10;;;9.00;1.60;;;;;;8341704;28;20221;-86
2023/01/04 19:50:42;;;;;;;1.50;1.23;;;9.10;1.00;;;;;;8341377;28;20192;-85
2023/01/04 19:54:43;;;;;;;2.83;1.43;;;9.20;1.00;;;;;;8338752;28;20213;-85
2023/01/04 19:58:44;;;;;;;1.87;1.20;;;9.20;1.00;;;;;;8339175;28;20190;-84
2023/01/04 20:02:45;;;;;;;3.13;1.70;;;9.20;1.00;;;;;;8336244;28;20193;-85
2023/01/04 20:06:46;;;;;;;2.37;1.40;;;9.20;1.00;;;;;;8332342;28;20252;-86
2023/01/04 20:10:55;;;;;;;1.87;1.40;;;9.20;1.00;;;;;;8336969;28;20432;-85
2023/01/04 20:14:56;;;;;;;1.50;1.20;;;9.20;1.00;;;;;;8338977;28;20320;-85
2023/01/04 20:18:57;;;;;;;2.50;1.20;;;9.30;1.00;;;;;;8334096;28;20241;-86
2023/01/04 20:22:58;;;;;;;1.43;1.13;;;9.30;1.00;;;;;;8344872;28;20185;-85
2023/01/04 20:26:59;;;;;;;1.13;0.83;;;9.30;1.00;;;;;;8340045;28;20321;-84
2023/01/04 20:31:05;;;;;;;1.63;1.20;;;9.40;99.90;;;;;;8341630;28;20169;-86
2023/01/04 20:35:06;;;;;;;1.73;1.40;;;9.40;99.90;;;;;;8342762;28;20237;-85
2023/01/04 20:39:07;;;;;;;3.80;1.50;;;9.40;99.90;;;;;;8349859;28;20196;-85
2023/01/04 20:47:29;;;;;;;2.03;1.37;;;9.50;99.90;;;;;;8344815;28;20201;-85
2023/01/04 20:51:30;;;;;;;2.53;1.07;;;9.50;1.00;;;;;;8338172;28;20388;-85
2023/01/04 20:55:31;;;;;;;1.77;1.43;;;9.50;1.00;;;;;;8342770;28;20373;-87
2023/01/04 20:59:32;;;;;;;2.27;1.30;;;9.60;99.90;;;;;;8343084;28;20191;-86
2023/01/04 21:03:34;;;;;;;2.30;1.70;;;9.60;99.90;;;;;;8340538;28;20210;-85
2023/01/04 21:07:35;;;;;;;2.03;1.40;;;9.50;99.90;;;;;;8363062;28;20217;-84
2023/01/04 21:11:36;;;;;;;2.93;1.50;;;9.40;1.00;;;;;;8344095;28;20292;-84
2023/01/04 21:15:38;;;;;;;2.37;1.43;;;9.40;1.00;;;;;;8342436;28;20202;-86
2023/01/04 21:19:39;;;;;;;1.77;1.10;;;9.50;99.90;;;;;;8346352;28;20190;-86
2023/01/04 21:23:42;;;;;;;1.87;1.30;;;9.50;99.90;;;;;;8375070;28;20274;-86
2023/01/04 21:27:43;;;;;;;3.47;1.13;;;9.60;1.00;;;;;;8376173;28;20189;-85
2023/01/04 21:31:43;;;;;;;2.83;1.10;;;9.60;1.00;;;;;;8374532;28;20335;-86
2023/01/04 21:35:44;;;;;;;1.10;0.93;;;9.70;1.00;;;;;;8372110;28;20237;-86
2023/01/04 21:39:45;;;;;;;2.77;1.03;;;9.70;1.00;;;;;;8370309;28;20209;-87
2023/01/04 21:43:46;;;;;;;2.17;1.13;;;9.70;1.00;;;;;;8361205;28;20190;-85
2023/01/04 21:47:47;;;;;;;1.50;1.30;;;9.70;99.90;;;;;;8353456;28;20193;-84
2023/01/04 21:51:48;;;;;;;1.97;1.10;;;9.70;99.90;;;;;;8342094;28;20229;-86
2023/01/04 21:55:57;;;;;;;3.13;1.33;;;9.70;1.00;;;;;;8342609;28;20190;-85
2023/01/04 21:59:58;;;;;;;1.60;1.20;;;9.70;99.90;;;;;;8352891;28;20198;-85
2023/01/04 22:03:59;;;;;;;3.30;0.90;;;9.70;99.90;;;;;;8340401;28;20225;-85
2023/01/04 22:08:00;;;;;;;2.40;1.23;;;9.70;99.90;;;;;;8340884;28;20489;-86
2023/01/04 22:12:01;;;;;;;3.43;1.00;;;9.70;99.90;;;;;;8341796;28;20235;-85
2023/01/04 22:16:08;;;;;;;1.67;0.93;;;9.80;99.90;;;;;;8343989;28;20193;-85
2023/01/04 22:20:10;;;;;;;2.33;1.40;;;9.90;99.90;;;;;;8342613;28;20195;-86
2023/01/04 22:24:12;;;;;;;2.00;1.13;;;9.90;99.90;;;;;;8341076;28;20384;-85
2023/01/04 22:28:13;;;;;;;2.00;0.90;;;10.00;99.90;;;;;;8356531;28;20191;-85
2023/01/04 22:32:14;;;;;;;1.10;0.77;;;10.00;1.00;;;;;;8341393;28;20187;-86